createdAt,value
2019-03-19T00:00:36.197Z,2.57
2019-03-19T00:03:04.527Z,2.73
2019-03-19T00:05:32.007Z,2.80
2019-03-19T00:07:59.562Z,3.23
2019-03-19T00:10:27.806Z,2.60
2019-03-19T00:12:55.265Z,2.63
2019-03-19T00:15:22.725Z,2.67
2019-03-19T00:17:50.201Z,2.50
2019-03-19T00:20:17.679Z,2.33
2019-03-19T00:22:45.202Z,2.27
2019-03-19T00:25:12.670Z,2.20
2019-03-19T00:27:40.143Z,2.30
2019-03-19T00:30:09.107Z,2.60
2019-03-19T00:32:36.943Z,2.43
2019-03-19T00:35:05.903Z,2.73
2019-03-19T00:37:33.441Z,2.53
2019-03-19T00:40:00.907Z,2.57
2019-03-19T00:42:28.368Z,3.03
2019-03-19T00:44:55.814Z,2.27
2019-03-19T00:47:23.350Z,2.83
2019-03-19T00:49:50.801Z,2.20
2019-03-19T00:52:19.027Z,2.07
2019-03-19T00:54:46.544Z,2.47
2019-03-19T00:57:14.004Z,2.17
2019-03-19T00:59:41.472Z,2.83
2019-03-19T01:02:08.938Z,2.40
2019-03-19T01:04:36.905Z,2.07
2019-03-19T01:07:04.385Z,2.57
2019-03-19T01:09:32.627Z,2.00
2019-03-19T01:12:00.109Z,2.53
2019-03-19T01:14:27.585Z,2.57
2019-03-19T01:16:55.853Z,2.57
2019-03-19T01:19:23.319Z,2.20
2019-03-19T01:21:50.873Z,2.53
2019-03-19T01:24:18.337Z,2.50
2019-03-19T01:26:45.807Z,2.43
2019-03-19T01:29:13.272Z,2.67
2019-03-19T01:31:41.509Z,2.63
2019-03-19T01:34:09.003Z,2.10
2019-03-19T01:36:36.560Z,2.27
2019-03-19T01:39:04.020Z,2.60
2019-03-19T01:41:31.493Z,2.33
2019-03-19T01:43:59.746Z,2.80
2019-03-19T01:46:27.206Z,3.10
2019-03-19T01:48:54.666Z,2.60
2019-03-19T01:51:22.127Z,2.50
2019-03-19T01:53:49.615Z,2.40
2019-03-19T01:56:17.084Z,2.50
2019-03-19T01:58:44.545Z,2.43
2019-03-19T02:01:13.509Z,2.20
2019-03-19T02:03:41.000Z,3.10
2019-03-19T02:06:08.463Z,2.03
2019-03-19T02:08:36.025Z,2.30
2019-03-19T02:11:03.809Z,2.87
2019-03-19T02:13:32.041Z,2.60
2019-03-19T02:15:59.537Z,2.37
2019-03-19T02:18:27.097Z,2.40
2019-03-19T02:20:54.669Z,2.27
2019-03-19T02:23:22.126Z,2.67
2019-03-19T02:25:50.354Z,3.13
2019-03-19T02:28:18.639Z,3.40
2019-03-19T02:30:46.113Z,2.30
2019-03-19T02:33:13.575Z,2.73
2019-03-19T02:35:41.072Z,2.73
2019-03-19T02:38:08.539Z,2.43
2019-03-19T02:40:36.093Z,2.60
2019-03-19T02:43:03.779Z,2.27
2019-03-19T02:45:32.043Z,2.87
2019-03-19T02:48:00.294Z,2.63
2019-03-19T02:50:27.787Z,2.70
2019-03-19T02:52:55.255Z,2.73
2019-03-19T02:55:22.812Z,2.67
2019-03-19T02:57:50.300Z,2.10
2019-03-19T03:00:18.520Z,2.53
2019-03-19T03:02:45.985Z,2.97
2019-03-19T03:05:13.466Z,2.80
2019-03-19T03:07:40.927Z,3.10
2019-03-19T03:10:09.052Z,2.70
2019-03-19T03:12:36.514Z,2.67
2019-03-19T03:15:04.002Z,2.43
2019-03-19T03:17:31.475Z,2.43
2019-03-19T03:19:58.932Z,2.10
2019-03-19T03:22:26.420Z,2.27
2019-03-19T03:24:53.889Z,2.30
2019-03-19T03:27:21.371Z,2.50
2019-03-19T03:29:49.619Z,2.87
2019-03-19T03:32:17.139Z,2.50
2019-03-19T03:34:44.644Z,2.50
2019-03-19T03:37:12.217Z,2.47
2019-03-19T03:39:39.674Z,2.53
2019-03-19T03:42:07.246Z,2.03
2019-03-19T03:44:34.713Z,2.50
2019-03-19T03:47:02.181Z,2.13
2019-03-19T03:49:30.407Z,2.67
2019-03-19T03:51:57.915Z,2.33
2019-03-19T03:54:25.493Z,2.60
2019-03-19T03:57:01.996Z,2.00
2019-03-19T03:59:21.204Z,2.47
2019-03-19T04:01:48.681Z,2.53
2019-03-19T04:04:16.248Z,2.40
2019-03-19T04:06:43.733Z,2.60
2019-03-19T04:09:11.957Z,2.13
2019-03-19T04:11:39.492Z,2.33
2019-03-19T04:14:06.987Z,2.53
2019-03-19T04:16:34.444Z,3.00
2019-03-19T04:19:01.966Z,2.53
2019-03-19T04:21:30.192Z,2.53
2019-03-19T04:23:57.682Z,2.30
2019-03-19T04:26:25.147Z,2.70
2019-03-19T04:28:52.706Z,2.73
2019-03-19T04:31:20.184Z,2.17
2019-03-19T04:33:48.442Z,2.27
2019-03-19T04:36:16.004Z,2.40
2019-03-19T04:38:43.456Z,2.60
2019-03-19T04:41:10.928Z,2.50
2019-03-19T04:43:38.382Z,2.70
2019-03-19T04:46:05.865Z,2.27
2019-03-19T04:48:33.336Z,2.77
2019-03-19T04:51:01.561Z,2.53
2019-03-19T04:53:29.026Z,2.57
2019-03-19T04:55:56.549Z,2.30
2019-03-19T04:58:24.773Z,2.43
2019-03-19T05:00:52.260Z,2.17
2019-03-19T05:03:19.722Z,2.63
2019-03-19T05:05:48.690Z,2.40
2019-03-19T05:08:16.151Z,1.97
2019-03-19T05:10:43.623Z,2.23
2019-03-19T05:13:11.110Z,2.30
2019-03-19T05:15:38.664Z,2.33
2019-03-19T05:18:07.671Z,2.30
2019-03-19T05:20:36.633Z,2.60
2019-03-19T05:23:04.120Z,2.53
2019-03-19T05:25:32.415Z,2.50
2019-03-19T05:28:00.700Z,2.40
2019-03-19T05:30:28.267Z,2.70
2019-03-19T05:32:57.433Z,3.30
2019-03-19T05:35:24.909Z,2.97
2019-03-19T05:37:52.368Z,2.30
2019-03-19T05:40:19.877Z,2.83
2019-03-19T05:42:47.397Z,2.77
2019-03-19T05:45:14.984Z,2.53
2019-03-19T05:47:43.239Z,2.37
2019-03-19T05:50:13.647Z,2.58
2019-03-19T05:52:41.131Z,2.77
2019-03-19T05:55:09.351Z,2.63
2019-03-19T05:57:48.207Z,2.43
2019-03-19T06:00:05.853Z,2.83
2019-03-19T06:02:33.348Z,2.30
2019-03-19T06:05:01.612Z,2.70
2019-03-19T06:07:29.095Z,3.03
2019-03-19T06:09:57.398Z,2.90
2019-03-19T06:12:24.859Z,2.27
2019-03-19T06:14:52.322Z,6.73
2019-03-19T06:17:19.841Z,5.87
2019-03-19T06:19:47.418Z,4.20
2019-03-19T06:22:15.638Z,3.10
2019-03-19T06:24:43.158Z,2.83
2019-03-19T06:27:10.652Z,2.80
2019-03-19T06:29:38.167Z,2.80
2019-03-19T06:32:05.662Z,3.10
2019-03-19T06:34:33.887Z,3.43
2019-03-19T06:37:01.358Z,3.40
2019-03-19T06:39:28.936Z,2.87
2019-03-19T06:41:56.557Z,3.07
2019-03-19T06:44:24.070Z,2.47
2019-03-19T06:46:51.540Z,2.77
2019-03-19T06:49:19.852Z,2.80
2019-03-19T06:51:48.074Z,4.07
2019-03-19T06:54:15.544Z,3.50
2019-03-19T06:56:43.014Z,2.93
2019-03-19T06:59:10.479Z,3.30
2019-03-19T07:01:37.977Z,3.33
2019-03-19T07:04:05.425Z,3.00
2019-03-19T07:06:33.683Z,2.77
2019-03-19T07:09:03.710Z,3.20
2019-03-19T07:11:32.695Z,2.90
2019-03-19T07:14:00.165Z,3.00
2019-03-19T07:16:28.543Z,3.47
2019-03-19T07:18:56.003Z,3.17
2019-03-19T07:21:23.478Z,3.23
2019-03-19T07:23:50.996Z,3.20
2019-03-19T07:26:18.493Z,3.37
2019-03-19T07:28:46.782Z,3.43
2019-03-19T07:31:14.352Z,3.23
2019-03-19T07:33:42.589Z,3.50
2019-03-19T07:36:10.133Z,3.20
2019-03-19T07:38:37.691Z,3.97
2019-03-19T07:41:05.152Z,3.40
2019-03-19T07:43:32.669Z,3.50
2019-03-19T07:46:00.245Z,3.90
2019-03-19T07:48:27.707Z,3.53
2019-03-19T07:50:55.176Z,3.67
2019-03-19T07:53:23.443Z,3.97
2019-03-19T07:55:53.498Z,4.03
2019-03-19T07:58:19.227Z,4.37
2019-03-19T08:00:46.698Z,4.80
2019-03-19T08:03:16.335Z,4.97
2019-03-19T08:05:41.658Z,5.03
2019-03-19T08:08:09.136Z,3.90
2019-03-19T08:10:36.651Z,4.37
2019-03-19T08:13:04.870Z,4.13
2019-03-19T08:15:32.365Z,5.60
2019-03-19T08:18:00.586Z,4.60
2019-03-19T08:20:28.116Z,5.00
2019-03-19T08:22:55.652Z,4.63
2019-03-19T08:25:23.888Z,5.10
2019-03-19T08:27:52.216Z,5.37
2019-03-19T08:30:24.452Z,4.87
2019-03-19T08:32:50.703Z,4.90
2019-03-19T08:35:18.174Z,6.00
2019-03-19T08:37:45.715Z,5.87
2019-03-19T08:40:14.041Z,6.07
2019-03-19T08:42:42.302Z,4.97
2019-03-19T08:45:09.754Z,5.77
2019-03-19T08:47:38.499Z,6.67
2019-03-19T08:50:04.761Z,7.17
2019-03-19T08:52:32.227Z,6.60
2019-03-19T08:54:59.721Z,8.07
2019-03-19T08:57:27.947Z,8.40
2019-03-19T08:59:57.104Z,6.27
2019-03-19T09:02:22.965Z,8.90
2019-03-19T09:04:50.442Z,8.53
2019-03-19T09:07:20.100Z,7.53
2019-03-19T09:09:45.487Z,8.90
2019-03-19T09:12:12.951Z,9.27
2019-03-19T09:14:40.529Z,7.83
2019-03-19T09:17:08.110Z,10.60
2019-03-19T09:19:36.366Z,11.33
2019-03-19T09:22:03.969Z,10.67
2019-03-19T09:24:32.225Z,10.07
2019-03-19T09:26:59.701Z,10.43
2019-03-19T09:29:28.064Z,7.47
2019-03-19T09:31:55.538Z,10.47
2019-03-19T09:34:23.767Z,10.23
2019-03-19T09:36:57.190Z,10.03
2019-03-19T09:39:19.545Z,10.50
2019-03-19T09:41:47.011Z,9.37
2019-03-19T09:44:14.497Z,10.77
2019-03-19T09:46:42.737Z,10.83
2019-03-19T09:49:10.747Z,9.15
2019-03-19T09:51:38.254Z,8.33
2019-03-19T09:54:05.740Z,11.60
2019-03-19T09:56:33.312Z,13.13
2019-03-19T09:59:01.594Z,11.87
2019-03-19T10:01:29.052Z,13.13
2019-03-19T10:03:56.627Z,12.50
2019-03-19T10:06:24.890Z,13.03
2019-03-19T10:08:52.485Z,12.70
2019-03-19T10:11:20.736Z,12.40
2019-03-19T10:13:49.734Z,15.03
2019-03-19T10:16:17.220Z,12.20
2019-03-19T10:18:44.677Z,15.00
2019-03-19T10:21:12.920Z,13.50
2019-03-19T10:23:40.411Z,13.77
2019-03-19T10:26:08.660Z,13.05
2019-03-19T10:28:36.136Z,12.43
2019-03-19T10:31:04.408Z,13.77
2019-03-19T10:33:31.895Z,12.87
2019-03-19T10:35:59.423Z,11.83
2019-03-19T10:38:26.920Z,10.70
2019-03-19T10:40:55.179Z,12.00
2019-03-19T10:43:22.760Z,12.03
2019-03-19T10:45:50.241Z,11.17
2019-03-19T10:48:18.503Z,10.97
2019-03-19T10:50:46.063Z,10.57
2019-03-19T10:53:13.624Z,11.53
2019-03-19T10:55:41.173Z,10.63
2019-03-19T10:58:11.268Z,11.23
2019-03-19T11:00:36.252Z,10.70
2019-03-19T11:03:04.539Z,11.40
2019-03-19T11:05:32.070Z,11.47
2019-03-19T11:08:00.412Z,11.23
2019-03-19T11:10:27.924Z,12.53
2019-03-19T11:12:55.475Z,11.23
2019-03-19T11:15:25.782Z,11.33
2019-03-19T11:17:53.351Z,10.53
2019-03-19T11:20:20.830Z,10.23
2019-03-19T11:22:48.307Z,10.73
2019-03-19T11:25:31.432Z,11.33
2019-03-19T11:27:59.671Z,9.30
2019-03-19T11:30:27.137Z,9.77
2019-03-19T11:32:54.719Z,9.03
2019-03-19T11:35:23.695Z,10.23
2019-03-19T11:37:51.173Z,7.67
2019-03-19T11:40:18.659Z,7.60
2019-03-19T11:42:46.894Z,7.73
2019-03-19T11:45:15.908Z,7.80
2019-03-19T11:47:44.134Z,7.13
2019-03-19T11:50:24.122Z,7.40
2019-03-19T11:52:51.596Z,6.20
2019-03-19T11:55:20.346Z,5.30
2019-03-19T11:57:47.812Z,6.07
2019-03-19T12:00:19.791Z,6.53
2019-03-19T12:02:47.329Z,6.13
2019-03-19T12:05:14.811Z,6.23
2019-03-19T12:07:42.274Z,6.23
2019-03-19T12:10:09.765Z,5.47
2019-03-19T12:12:37.232Z,5.50
2019-03-19T12:15:05.674Z,5.67
2019-03-19T12:17:33.147Z,5.00
2019-03-19T12:20:00.834Z,5.17
2019-03-19T12:22:28.128Z,4.50
2019-03-19T12:24:56.360Z,3.70
2019-03-19T12:27:23.839Z,4.13
2019-03-19T12:29:51.411Z,4.93
2019-03-19T12:32:18.874Z,3.97
2019-03-19T12:34:46.338Z,3.67
2019-03-19T12:37:13.811Z,3.57
2019-03-19T12:39:41.265Z,3.00
2019-03-19T12:42:08.738Z,3.30
2019-03-19T12:44:36.971Z,2.70
2019-03-19T12:47:04.453Z,2.90
2019-03-19T12:49:31.917Z,3.17
2019-03-19T12:51:59.491Z,2.93
2019-03-19T12:54:27.050Z,2.43
2019-03-19T12:56:54.515Z,2.47
2019-03-19T12:59:22.017Z,2.20
2019-03-19T13:01:50.257Z,2.70
2019-03-19T13:04:18.537Z,2.50
2019-03-19T13:06:46.007Z,2.37
2019-03-19T13:09:13.568Z,2.30
2019-03-19T13:11:41.797Z,2.70
2019-03-19T13:14:09.297Z,2.93
2019-03-19T13:16:36.864Z,2.33
2019-03-19T13:19:06.071Z,2.60
2019-03-19T13:21:31.976Z,2.30
2019-03-19T13:23:59.469Z,2.43
2019-03-19T13:26:26.936Z,2.13
2019-03-19T13:28:54.407Z,2.27
2019-03-19T13:31:22.667Z,2.20
2019-03-19T13:33:50.122Z,1.80
2019-03-19T13:36:17.590Z,2.00
2019-03-19T13:38:45.070Z,2.10
2019-03-19T13:41:13.313Z,1.97
2019-03-19T13:43:40.795Z,2.27
2019-03-19T13:46:08.353Z,1.80
2019-03-19T13:48:35.813Z,1.80
2019-03-19T13:51:04.181Z,1.80
2019-03-19T13:53:31.666Z,2.50
2019-03-19T13:55:59.141Z,1.80
2019-03-19T13:58:27.370Z,2.37
2019-03-19T14:00:55.883Z,2.20
2019-03-19T14:03:22.430Z,1.90
2019-03-19T14:05:49.945Z,2.10
2019-03-19T14:08:18.055Z,1.77
2019-03-19T14:10:45.104Z,2.23
2019-03-19T14:13:12.570Z,1.80
2019-03-19T14:15:40.050Z,1.67
2019-03-19T14:18:07.613Z,1.90
2019-03-19T14:20:35.199Z,1.60
2019-03-19T14:23:04.406Z,2.07
2019-03-19T14:25:32.641Z,1.70
2019-03-19T14:28:00.284Z,1.70
2019-03-19T14:30:27.746Z,2.17
2019-03-19T14:32:55.225Z,2.10
2019-03-19T14:35:22.691Z,1.90
2019-03-19T14:37:50.271Z,2.17
2019-03-19T14:40:19.726Z,1.97
2019-03-19T14:42:47.185Z,2.30
2019-03-19T14:45:14.661Z,2.30
2019-03-19T14:47:42.211Z,2.13
2019-03-19T14:50:18.543Z,1.80
2019-03-19T14:52:46.010Z,2.37
2019-03-19T14:55:13.555Z,2.03
2019-03-19T14:57:41.048Z,2.47
2019-03-19T15:00:11.921Z,2.00
2019-03-19T15:02:39.475Z,2.40
2019-03-19T15:05:06.983Z,2.53
2019-03-19T15:07:34.480Z,2.33
2019-03-19T15:10:02.778Z,2.33
2019-03-19T15:12:30.229Z,2.43
2019-03-19T15:14:58.497Z,2.50
2019-03-19T15:17:26.753Z,2.03
2019-03-19T15:19:54.271Z,2.30
2019-03-19T15:22:31.868Z,2.30
2019-03-19T15:24:50.014Z,2.27
2019-03-19T15:27:17.484Z,2.37
2019-03-19T15:29:44.943Z,1.97
2019-03-19T15:32:12.437Z,2.33
2019-03-19T15:34:39.898Z,2.00
2019-03-19T15:37:07.497Z,2.50
2019-03-19T15:39:35.803Z,2.30
2019-03-19T15:42:03.857Z,2.40
2019-03-19T15:44:32.119Z,1.87
2019-03-19T15:46:59.638Z,2.23
2019-03-19T15:49:37.596Z,2.40
2019-03-19T15:51:54.637Z,2.53
2019-03-19T15:54:22.910Z,2.63
2019-03-19T15:56:51.144Z,2.60
2019-03-19T15:59:18.616Z,2.83
2019-03-19T16:01:46.098Z,2.90
2019-03-19T16:04:13.559Z,3.33
2019-03-19T16:06:41.111Z,2.63
2019-03-19T16:09:08.660Z,2.70
2019-03-19T16:11:36.115Z,2.70
2019-03-19T16:14:04.487Z,2.50
2019-03-19T16:16:31.966Z,2.27
2019-03-19T16:18:59.419Z,2.80
2019-03-19T16:21:26.897Z,2.63
2019-03-19T16:23:54.458Z,3.17
2019-03-19T16:26:21.929Z,2.65
2019-03-19T16:28:50.164Z,3.00
2019-03-19T16:31:17.631Z,2.40
2019-03-19T16:33:45.952Z,2.63
2019-03-19T16:36:14.938Z,2.97
2019-03-19T16:38:42.424Z,2.53
2019-03-19T16:41:09.971Z,2.83
2019-03-19T16:43:37.493Z,2.90
2019-03-19T16:46:04.954Z,2.60
2019-03-19T16:48:32.459Z,3.10
2019-03-19T16:50:59.914Z,3.07
2019-03-19T16:53:27.494Z,3.47
2019-03-19T16:55:54.950Z,2.70
2019-03-19T16:58:22.422Z,3.50
2019-03-19T17:00:49.970Z,3.03
2019-03-19T17:03:17.549Z,4.17
2019-03-19T17:05:45.017Z,3.40
2019-03-19T17:08:12.523Z,3.73
2019-03-19T17:10:39.985Z,4.20
2019-03-19T17:13:07.471Z,3.57
2019-03-19T17:15:35.140Z,3.27
2019-03-19T17:18:03.526Z,4.23
2019-03-19T17:20:30.989Z,4.07
2019-03-19T17:22:58.464Z,4.70
2019-03-19T17:25:26.041Z,3.80
2019-03-19T17:27:53.500Z,4.77
2019-03-19T17:30:24.638Z,4.30
2019-03-19T17:32:52.095Z,4.40
2019-03-19T17:35:19.564Z,4.23
2019-03-19T17:37:47.847Z,4.10
2019-03-19T17:40:16.882Z,4.20
2019-03-19T17:42:44.374Z,5.37
2019-03-19T17:45:12.733Z,4.83
2019-03-19T17:47:40.205Z,5.27
2019-03-19T17:50:13.204Z,4.93
2019-03-19T17:52:40.700Z,5.07
2019-03-19T17:55:08.263Z,4.68
2019-03-19T17:57:36.862Z,5.23
2019-03-19T18:00:05.052Z,4.47
2019-03-19T18:02:33.316Z,4.80
2019-03-19T18:05:00.786Z,5.47
2019-03-19T18:07:29.045Z,4.40
2019-03-19T18:09:56.510Z,4.97
2019-03-19T18:12:24.094Z,5.07
2019-03-19T18:14:51.594Z,4.67
2019-03-19T18:17:19.084Z,5.20
2019-03-19T18:19:46.529Z,4.93
2019-03-19T18:22:14.043Z,5.47
2019-03-19T18:24:41.510Z,5.33
2019-03-19T18:27:09.773Z,5.43
2019-03-19T18:29:37.241Z,5.00
2019-03-19T18:32:04.725Z,4.93
2019-03-19T18:34:32.979Z,5.70
2019-03-19T18:37:00.857Z,6.07
2019-03-19T18:39:28.372Z,5.80
2019-03-19T18:41:55.831Z,5.23
2019-03-19T18:44:23.300Z,4.90
2019-03-19T18:46:50.864Z,6.50
2019-03-19T18:49:18.339Z,5.60
2019-03-19T18:51:45.823Z,5.97
2019-03-19T18:54:14.415Z,5.20
2019-03-19T18:56:42.684Z,5.53
2019-03-19T18:59:10.258Z,5.40
2019-03-19T19:01:38.545Z,5.67
2019-03-19T19:04:06.032Z,4.50
2019-03-19T19:06:34.284Z,5.27
2019-03-19T19:09:02.503Z,6.00
2019-03-19T19:11:30.026Z,5.97
2019-03-19T19:13:57.491Z,6.43
2019-03-19T19:16:25.072Z,6.60
2019-03-19T19:18:53.449Z,6.50
2019-03-19T19:21:22.064Z,6.00
2019-03-19T19:23:49.526Z,6.33
2019-03-19T19:26:17.005Z,6.50
2019-03-19T19:28:44.459Z,6.60
2019-03-19T19:31:12.253Z,6.17
2019-03-19T19:33:39.738Z,6.00
2019-03-19T19:36:07.301Z,6.90
2019-03-19T19:38:34.772Z,6.60
2019-03-19T19:41:04.303Z,6.97
2019-03-19T19:43:32.556Z,5.83
2019-03-19T19:46:00.459Z,6.60
2019-03-19T19:48:28.692Z,6.73
2019-03-19T19:50:56.153Z,6.30
2019-03-19T19:53:23.651Z,7.77
2019-03-19T19:55:51.899Z,7.73
2019-03-19T19:58:19.467Z,7.90
2019-03-19T20:00:46.944Z,7.53
2019-03-19T20:03:14.416Z,7.15
2019-03-19T20:05:41.898Z,6.17
2019-03-19T20:08:09.365Z,6.80
2019-03-19T20:10:36.822Z,6.80
2019-03-19T20:13:04.305Z,6.70
2019-03-19T20:15:31.796Z,7.27
2019-03-19T20:17:59.280Z,6.07
2019-03-19T20:20:28.703Z,6.23
2019-03-19T20:22:56.959Z,6.23
2019-03-19T20:25:24.438Z,6.40
2019-03-19T20:27:52.744Z,6.23
2019-03-19T20:30:24.143Z,6.90
2019-03-19T20:32:51.628Z,6.90
2019-03-19T20:35:19.857Z,6.90
2019-03-19T20:37:47.335Z,6.03
2019-03-19T20:40:14.831Z,6.63
2019-03-19T20:42:43.139Z,6.17
2019-03-19T20:45:14.730Z,6.43
2019-03-19T20:47:42.210Z,6.50
2019-03-19T20:50:12.442Z,6.27
2019-03-19T20:52:39.917Z,6.13
2019-03-19T20:55:07.458Z,7.03
2019-03-19T20:57:35.046Z,7.10
2019-03-19T21:00:02.603Z,6.50
2019-03-19T21:02:30.190Z,6.20
2019-03-19T21:04:58.441Z,6.80
2019-03-19T21:07:25.913Z,6.90
2019-03-19T21:09:53.718Z,6.90
2019-03-19T21:12:22.799Z,6.67
2019-03-19T21:14:51.093Z,7.70
2019-03-19T21:17:19.418Z,7.17
2019-03-19T21:19:46.948Z,6.53
2019-03-19T21:22:14.607Z,6.40
2019-03-19T21:24:42.080Z,6.63
2019-03-19T21:27:09.553Z,7.50
2019-03-19T21:29:37.038Z,6.17
2019-03-19T21:32:04.685Z,6.63
2019-03-19T21:34:32.141Z,6.10
2019-03-19T21:36:59.624Z,6.67
2019-03-19T21:39:27.146Z,7.40
2019-03-19T21:41:54.674Z,6.87
2019-03-19T21:44:22.131Z,7.13
2019-03-19T21:46:51.353Z,7.70
2019-03-19T21:49:19.601Z,6.53
2019-03-19T21:51:47.179Z,7.00
2019-03-19T21:54:14.635Z,7.37
2019-03-19T21:56:43.605Z,6.83
2019-03-19T21:59:11.077Z,6.57
2019-03-19T22:01:38.542Z,6.40
2019-03-19T22:04:06.028Z,6.63
2019-03-19T22:06:33.588Z,6.90
2019-03-19T22:09:01.091Z,7.10
2019-03-19T22:11:28.563Z,7.70
2019-03-19T22:13:56.028Z,7.07
2019-03-19T22:16:23.486Z,7.13
2019-03-19T22:18:51.211Z,7.53
2019-03-19T22:21:18.773Z,7.97
2019-03-19T22:23:46.255Z,6.60
2019-03-19T22:26:14.495Z,7.20
2019-03-19T22:28:41.972Z,7.90
2019-03-19T22:31:09.436Z,6.93
2019-03-19T22:33:37.682Z,7.17
2019-03-19T22:36:05.163Z,8.30
2019-03-19T22:38:32.741Z,6.97
2019-03-19T22:41:01.726Z,7.23
2019-03-19T22:43:29.202Z,7.47
2019-03-19T22:45:56.676Z,7.80
2019-03-19T22:48:24.953Z,8.13
2019-03-19T22:50:52.498Z,7.40
2019-03-19T22:53:19.976Z,7.10
2019-03-19T22:55:47.535Z,7.03
2019-03-19T22:58:15.021Z,6.50
2019-03-19T23:00:44.193Z,6.77
2019-03-19T23:03:11.657Z,7.73
2019-03-19T23:05:39.223Z,7.47
2019-03-19T23:08:06.698Z,7.90
2019-03-19T23:10:35.032Z,7.93
2019-03-19T23:13:02.526Z,9.10
2019-03-19T23:15:30.017Z,7.67
2019-03-19T23:17:58.276Z,7.43
2019-03-19T23:20:25.837Z,9.27
2019-03-19T23:22:53.359Z,8.90
2019-03-19T23:25:20.822Z,8.00
2019-03-19T23:27:48.309Z,7.50
2019-03-19T23:30:15.784Z,8.30
2019-03-19T23:32:43.246Z,7.67
2019-03-19T23:35:10.715Z,6.93
2019-03-19T23:37:38.171Z,9.20
2019-03-19T23:40:05.649Z,8.87
2019-03-19T23:42:33.904Z,8.17
2019-03-19T23:45:01.469Z,8.17
2019-03-19T23:47:30.445Z,9.20
2019-03-19T23:49:57.926Z,8.70
2019-03-19T23:52:25.396Z,8.47
2019-03-19T23:54:52.954Z,10.07
2019-03-19T23:57:20.514Z,8.97
2019-03-19T23:59:47.988Z,9.67
